Time;durP1;ratioP1;P1;durP2;ratioP2;P2;SDS_P1;SDS_P2;PMS_P1;PMS_P2;Temp;Humidity;BMP_temperature;BMP_pressure;BME280_temperature;BME280_humidity;BME280_pressure;Samples;Min_cycle;Max_cycle;Signal;HPM_P1;HPM_P2
2022/11/13 00:01:06;;;;;;;10.10;5.22;;;;;;;10.86;82.87;101323.25;5030783;28;20030;-43
2022/11/13 00:03:31;;;;;;;6.97;5.10;;;;;;;10.86;84.03;101325.06;5030687;28;20033;-43
2022/11/13 00:06:01;;;;;;;8.75;5.20;;;;;;;10.72;84.87;101327.41;5032986;28;20028;-43
2022/11/13 00:08:26;;;;;;;8.25;5.50;;;;;;;10.48;86.13;101322.88;5034610;28;20029;-44
2022/11/13 00:10:59;;;;;;;7.95;5.38;;;;;;;10.37;86.91;101315.22;5034417;28;20040;-43
2022/11/13 00:13:24;;;;;;;6.70;5.05;;;;;;;10.31;87.38;101326.50;5034392;28;20496;-43
2022/11/13 00:15:57;;;;;;;8.48;5.28;;;;;;;10.36;86.60;101324.22;5034650;28;20104;-43
2022/11/13 00:18:23;;;;;;;7.70;5.53;;;;;;;10.37;86.94;101323.19;5034460;28;20025;-45
2022/11/13 00:20:48;;;;;;;8.43;5.55;;;;;;;10.47;86.50;101325.69;5034383;28;20036;-43
2022/11/13 00:23:14;;;;;;;8.60;5.55;;;;;;;10.60;86.17;101327.88;5033765;28;20130;-43
2022/11/13 00:25:39;;;;;;;9.98;6.07;;;;;;;10.38;87.17;101330.19;5034127;28;20448;-44
2022/11/13 00:28:05;;;;;;;7.72;5.47;;;;;;;10.59;85.54;101324.41;5032919;28;20483;-45
2022/11/13 00:30:30;;;;;;;7.40;5.35;;;;;;;10.78;84.98;101325.91;5033940;28;20026;-44
2022/11/13 00:32:55;;;;;;;7.50;5.40;;;;;;;10.74;85.64;101327.25;5033869;28;20029;-44
2022/11/13 00:35:21;;;;;;;8.35;6.18;;;;;;;10.68;86.10;101322.56;5034112;28;20026;-44
2022/11/13 00:37:46;;;;;;;8.55;5.72;;;;;;;10.60;86.87;101322.56;5033891;28;20108;-44
2022/11/13 00:40:11;;;;;;;7.95;5.45;;;;;;;10.46;87.37;101324.06;5032634;28;20052;-45
2022/11/13 00:42:37;;;;;;;8.55;5.50;;;;;;;10.61;86.04;101324.25;5034032;28;20029;-44
2022/11/13 00:45:03;;;;;;;11.00;6.30;;;;;;;10.52;87.11;101318.06;5033858;28;20144;-44
2022/11/13 00:47:28;;;;;;;8.55;5.78;;;;;;;10.57;86.15;101318.41;5033554;28;20028;-45
2022/11/13 00:49:53;;;;;;;8.88;6.13;;;;;;;10.54;86.35;101327.53;5034059;28;20052;-45
2022/11/13 00:52:19;;;;;;;11.05;5.85;;;;;;;10.77;85.07;101326.91;5033849;28;20028;-45
2022/11/13 00:54:44;;;;;;;7.50;5.55;;;;;;;10.84;86.23;101319.09;5033814;28;20108;-45
2022/11/13 00:57:10;;;;;;;8.73;6.30;;;;;;;10.89;84.36;101314.94;5033602;28;20048;-45
2022/11/13 00:59:35;;;;;;;10.23;6.82;;;;;;;10.67;85.95;101323.56;5033335;28;20056;-45
2022/11/13 01:02:00;;;;;;;9.00;6.55;;;;;;;10.34;88.35;101328.84;5033591;28;20099;-45
2022/11/13 01:04:28;;;;;;;9.35;6.78;;;;;;;10.69;86.34;101326.91;5033209;28;20026;-45
2022/11/13 01:06:54;;;;;;;8.80;6.43;;;;;;;10.68;86.01;101328.75;5033402;28;20527;-44
2022/11/13 01:09:19;;;;;;;9.20;6.25;;;;;;;10.49;87.93;101324.56;5032061;28;20156;-46
2022/11/13 01:11:44;;;;;;;10.63;6.40;;;;;;;10.48;88.54;101324.72;5033372;28;20013;-45
2022/11/13 01:14:10;;;;;;;10.35;6.53;;;;;;;10.48;89.20;101320.22;5033120;28;20018;-45
2022/11/13 01:16:35;;;;;;;9.90;6.68;;;;;;;10.58;87.07;101320.06;5032758;28;20362;-45
2022/11/13 01:19:01;;;;;;;10.30;7.10;;;;;;;10.73;86.79;101323.72;5033466;28;20346;-45
2022/11/13 01:21:27;;;;;;;9.75;6.35;;;;;;;10.56;86.94;101304.25;5032985;28;20074;-45
2022/11/13 01:23:53;;;;;;;9.50;6.38;;;;;;;10.73;86.37;101321.06;5033178;28;20045;-44
2022/11/13 01:26:23;;;;;;;12.95;6.78;;;;;;;10.64;86.12;101319.44;5032636;28;20045;-44
2022/11/13 01:28:49;;;;;;;9.18;6.50;;;;;;;11.05;84.53;101321.25;5033133;28;20025;-44
2022/11/13 01:31:20;;;;;;;10.80;7.40;;;;;;;10.92;85.09;101319.06;5032886;28;20105;-45
2022/11/13 01:33:46;;;;;;;10.27;7.00;;;;;;;10.77;86.45;101313.59;5032912;28;20025;-45
2022/11/13 01:36:15;;;;;;;10.80;7.32;;;;;;;10.60;86.65;101291.44;5032827;28;20025;-44
2022/11/13 01:38:41;;;;;;;9.93;6.97;;;;;;;10.79;85.68;101311.59;5032798;28;20033;-44
2022/11/13 01:41:09;;;;;;;10.32;7.15;;;;;;;10.76;86.47;101315.41;5032752;28;20021;-45
2022/11/13 01:43:36;;;;;;;11.18;7.88;;;;;;;10.95;85.85;101310.75;5032762;28;20207;-45
2022/11/13 01:46:02;;;;;;;10.82;7.78;;;;;;;10.80;85.88;101307.09;5032408;28;20096;-45
2022/11/13 01:48:39;;;;;;;12.05;8.48;;;;;;;10.96;85.82;101302.56;5032350;28;20470;-44
2022/11/13 01:51:11;;;;;;;11.32;7.63;;;;;;;10.98;85.28;101304.25;5032627;28;20037;-44
2022/11/13 01:53:40;;;;;;;12.57;8.40;;;;;;;10.92;85.62;101305.75;5032677;28;20083;-44
2022/11/13 01:56:06;;;;;;;12.15;7.40;;;;;;;10.85;85.16;101292.31;5032075;28;20037;-44
2022/11/13 01:58:32;;;;;;;9.75;7.50;;;;;;;10.86;85.64;101307.25;5032754;28;20036;-44
2022/11/13 02:00:58;;;;;;;10.30;7.75;;;;;;;10.94;85.35;101299.25;5032180;28;20409;-44
2022/11/13 02:03:23;;;;;;;13.13;8.23;;;;;;;10.67;87.28;101302.28;5031917;28;20025;-44
2022/11/13 02:05:49;;;;;;;10.68;7.30;;;;;;;10.81;86.80;101296.25;5032106;28;20086;-44
2022/11/13 02:08:15;;;;;;;10.93;7.28;;;;;;;10.72;86.45;101303.44;5032382;28;20025;-45
2022/11/13 02:10:40;;;;;;;9.38;6.78;;;;;;;10.78;86.19;101301.13;5031993;28;20033;-44
2022/11/13 02:13:06;;;;;;;11.02;7.28;;;;;;;10.87;86.21;101305.41;5031962;28;20378;-44
2022/11/13 02:15:33;;;;;;;11.15;7.38;;;;;;;10.82;86.20;101305.09;5031920;28;20033;-45
2022/11/13 02:18:00;;;;;;;10.90;7.40;;;;;;;10.71;86.96;101304.44;5032323;28;20167;-44
2022/11/13 02:20:41;;;;;;;10.98;7.40;;;;;;;10.63;87.75;101300.94;5032132;28;20033;-45
2022/11/13 02:23:06;;;;;;;10.85;7.35;;;;;;;10.64;87.89;101297.28;5031689;28;20136;-44
2022/11/13 02:25:32;;;;;;;11.00;7.00;;;;;;;10.60;87.92;101302.09;5031910;28;20498;-44
2022/11/13 02:27:57;;;;;;;9.48;6.65;;;;;;;10.68;87.55;101296.78;5031134;28;20030;-44
2022/11/13 02:30:27;;;;;;;9.10;6.45;;;;;;;10.56;88.48;101296.25;5031797;28;20065;-45
2022/11/13 02:32:54;;;;;;;10.48;6.97;;;;;;;10.64;87.71;101286.63;5031954;28;20047;-44
2022/11/13 02:35:30;;;;;;;9.00;6.65;;;;;;;10.63;87.87;101290.31;5031657;28;20108;-44
2022/11/13 02:37:58;;;;;;;11.55;7.38;;;;;;;10.52;87.09;101273.63;5031585;28;20025;-44
2022/11/13 02:40:24;;;;;;;11.27;6.88;;;;;;;10.74;87.46;101295.28;5031449;28;20083;-45
2022/11/13 02:42:49;;;;;;;11.75;7.00;;;;;;;10.62;87.44;101293.94;5031533;28;20033;-47
2022/11/13 02:45:15;;;;;;;11.73;6.93;;;;;;;10.70;86.82;101292.13;5031604;28;20026;-45
2022/11/13 02:47:41;;;;;;;11.73;6.38;;;;;;;10.83;86.24;101296.09;5031328;28;20025;-45
2022/11/13 02:50:09;;;;;;;11.18;7.30;;;;;;;10.69;86.66;101293.13;5031323;28;20029;-46
2022/11/13 02:52:34;;;;;;;10.13;6.88;;;;;;;10.52;88.81;101284.28;5031227;28;20030;-45
2022/11/13 02:54:59;;;;;;;10.43;7.07;;;;;;;10.69;87.91;101295.78;5031308;28;20463;-45
2022/11/13 02:57:25;;;;;;;11.52;6.95;;;;;;;10.66;88.31;101296.13;5031136;28;20029;-46
2022/11/13 02:59:50;;;;;;;12.85;7.20;;;;;;;10.80;86.38;101294.63;5031352;28;20113;-44
2022/11/13 03:02:16;;;;;;;10.63;6.68;;;;;;;10.52;88.52;101297.59;5031250;28;20448;-44
2022/11/13 03:04:41;;;;;;;10.82;6.97;;;;;;;10.58;88.62;101290.78;5030966;28;20528;-48
2022/11/13 03:07:07;;;;;;;10.95;7.03;;;;;;;10.74;88.68;101292.63;5031198;28;20033;-46
2022/11/13 03:09:32;;;;;;;10.18;6.97;;;;;;;11.01;86.06;101294.09;5031339;28;20036;-45
2022/11/13 03:11:58;;;;;;;11.27;6.88;;;;;;;10.90;86.01;101291.78;5030948;28;20025;-45
2022/11/13 03:14:23;;;;;;;9.73;6.80;;;;;;;11.14;85.19;101286.41;5031077;28;20017;-45
2022/11/13 03:16:49;;;;;;;10.20;7.30;;;;;;;11.02;85.36;101290.41;5030909;28;20116;-44
2022/11/13 03:19:14;;;;;;;13.35;7.75;;;;;;;10.99;86.37;101284.63;5030800;28;20025;-45
2022/11/13 03:21:39;;;;;;;14.20;8.48;;;;;;;11.18;84.90;101278.09;5030680;28;20025;-47
2022/11/13 03:24:05;;;;;;;14.02;8.68;;;;;;;11.01;85.42;101286.09;5031016;28;20033;-45
2022/11/13 03:26:30;;;;;;;13.52;7.95;;;;;;;10.88;85.80;101288.47;5031016;28;20075;-45
2022/11/13 03:28:56;;;;;;;13.55;8.15;;;;;;;10.79;85.54;101290.28;5030609;28;20496;-44
2022/11/13 03:31:22;;;;;;;11.57;7.53;;;;;;;10.80;85.94;101283.16;5030843;28;20033;-45
2022/11/13 03:33:47;;;;;;;12.65;7.72;;;;;;;10.75;87.21;101284.44;5030862;28;20453;-46
2022/11/13 03:36:13;;;;;;;11.45;7.60;;;;;;;10.69;87.53;101281.63;5031073;28;20036;-45
2022/11/13 03:38:38;;;;;;;11.57;7.00;;;;;;;10.92;86.15;101292.44;5030821;28;20025;-45
2022/11/13 03:41:04;;;;;;;12.00;7.30;;;;;;;10.85;85.47;101286.13;5033970;28;20033;-45
2022/11/13 03:43:30;;;;;;;15.48;7.93;;;;;;;10.75;86.60;101284.44;5035381;28;20448;-45
2022/11/13 03:45:55;;;;;;;16.90;8.90;;;;;;;10.61;88.76;101286.97;5034634;28;20540;-45
2022/11/13 03:48:21;;;;;;;12.98;8.38;;;;;;;10.84;87.46;101285.28;5034961;28;20029;-43
2022/11/13 03:50:49;;;;;;;11.75;7.70;;;;;;;10.62;88.59;101283.28;5034929;28;20373;-44
2022/11/13 03:53:15;;;;;;;11.23;7.05;;;;;;;10.62;89.19;101285.97;5034435;28;20497;-43
2022/11/13 03:55:43;;;;;;;11.50;7.25;;;;;;;10.50;89.75;101288.13;5034710;28;20060;-44
2022/11/13 03:58:08;;;;;;;13.68;7.90;;;;;;;10.47;90.83;101291.09;5034593;28;20117;-43
2022/11/13 04:00:35;;;;;;;11.98;7.15;;;;;;;10.57;88.49;101279.31;5034486;28;20116;-42
2022/11/13 04:03:01;;;;;;;11.52;7.82;;;;;;;10.68;87.23;101282.63;5034465;28;20049;-43
2022/11/13 04:05:26;;;;;;;11.80;7.57;;;;;;;10.68;87.56;101279.97;5034581;28;20185;-44
2022/11/13 04:07:52;;;;;;;11.32;7.22;;;;;;;10.65;88.27;101283.81;5034427;28;20033;-43
2022/11/13 04:10:18;;;;;;;10.70;7.13;;;;;;;10.53;87.60;101275.31;5034338;28;20029;-44
2022/11/13 04:12:43;;;;;;;11.00;7.60;;;;;;;10.74;87.19;101284.66;5034477;28;20105;-43
2022/11/13 04:15:09;;;;;;;10.73;7.25;;;;;;;10.54;87.16;101281.47;5034522;28;20397;-43
2022/11/13 04:17:34;;;;;;;11.75;7.28;;;;;;;10.42;89.36;101277.47;5034142;28;20075;-45
2022/11/13 04:20:00;;;;;;;12.27;7.68;;;;;;;10.47;89.29;101277.78;5034307;28;20030;-44
2022/11/13 04:22:25;;;;;;;11.35;7.45;;;;;;;10.58;88.41;101282.78;5033819;28;20062;-45
2022/11/13 04:24:50;;;;;;;11.98;7.78;;;;;;;10.46;88.49;101289.44;5034058;28;20025;-44
2022/11/13 04:27:16;;;;;;;11.85;7.60;;;;;;;10.36;89.15;101284.28;5034115;28;20112;-44
2022/11/13 04:29:41;;;;;;;12.05;7.35;;;;;;;10.45;88.76;101288.63;5033856;28;20029;-44
2022/11/13 04:32:07;;;;;;;12.43;7.60;;;;;;;10.59;87.63;101295.13;5034053;28;20021;-44
2022/11/13 04:34:33;;;;;;;12.80;7.85;;;;;;;10.37;88.37;101292.09;5033970;28;20163;-48
2022/11/13 04:36:58;;;;;;;11.73;7.82;;;;;;;10.45;89.34;101304.59;5034195;28;20377;-44
2022/11/13 04:39:24;;;;;;;13.43;8.50;;;;;;;10.35;90.64;101299.41;5033747;28;20441;-44
2022/11/13 04:44:33;;;;;;;15.57;8.85;;;;;;;10.40;90.59;101295.44;5033688;28;20032;-44
2022/11/13 04:46:59;;;;;;;14.95;9.30;;;;;;;10.42;90.67;101304.09;5033888;28;20033;-44
2022/11/13 04:49:24;;;;;;;13.43;8.57;;;;;;;10.59;89.45;101302.28;5033858;28;20029;-44
2022/11/13 04:51:49;;;;;;;13.82;8.68;;;;;;;10.65;90.00;101304.28;5033036;28;20032;-44
2022/11/13 04:54:15;;;;;;;14.15;8.20;;;;;;;10.65;89.16;101298.94;5033557;28;20108;-45
2022/11/13 04:56:40;;;;;;;12.77;8.23;;;;;;;10.31;89.73;101281.28;5033618;28;20030;-43
2022/11/13 04:59:06;;;;;;;16.02;8.68;;;;;;;10.57;89.85;101305.94;5033812;28;20037;-43
2022/11/13 05:01:31;;;;;;;13.02;8.43;;;;;;;10.42;90.07;101307.56;5033454;28;20025;-43
2022/11/13 05:03:56;;;;;;;12.30;8.15;;;;;;;10.36;90.12;101301.06;5033303;28;20029;-45
2022/11/13 05:06:22;;;;;;;12.63;8.07;;;;;;;10.33;89.96;101295.25;5033487;28;20127;-43
2022/11/13 05:08:47;;;;;;;14.98;8.98;;;;;;;10.27;91.23;101307.34;5033333;28;20385;-46
2022/11/13 05:11:13;;;;;;;13.50;8.90;;;;;;;9.92;93.50;101306.59;5033619;28;20033;-45
2022/11/13 05:13:38;;;;;;;16.42;9.85;;;;;;;10.16;92.87;101299.66;5031984;28;20017;-45
2022/11/13 05:16:07;;;;;;;17.25;10.23;;;;;;;10.48;89.79;101298.94;5032954;28;20047;-44
2022/11/13 05:18:34;;;;;;;15.15;9.00;;;;;;;10.39;90.37;101301.75;5033073;28;20371;-45
2022/11/13 05:21:00;;;;;;;15.65;9.20;;;;;;;10.17;90.44;101296.03;5033057;28;20029;-44
2022/11/13 05:23:25;;;;;;;15.18;9.15;;;;;;;10.08;90.89;101295.16;5032790;28;20115;-45
2022/11/13 05:25:51;;;;;;;15.60;9.75;;;;;;;10.10;91.35;101298.50;5033139;28;20109;-45
2022/11/13 05:28:17;;;;;;;15.38;9.73;;;;;;;10.22;89.94;101298.19;5032796;28;20029;-47
2022/11/13 05:30:42;;;;;;;13.40;9.30;;;;;;;10.29;90.14;101304.53;5032871;28;20037;-46
2022/11/13 05:33:08;;;;;;;14.90;8.98;;;;;;;10.19;91.28;101307.34;5032982;28;20025;-45
2022/11/13 05:35:33;;;;;;;19.63;11.73;;;;;;;10.38;90.09;101303.59;5033227;28;20052;-47
2022/11/13 05:38:00;;;;;;;16.58;9.52;;;;;;;10.39;89.46;101305.22;5032588;28;20401;-45
2022/11/13 05:40:26;;;;;;;20.08;11.57;;;;;;;10.39;89.24;101310.56;5033260;28;20081;-45
2022/11/13 05:42:52;;;;;;;22.08;14.55;;;;;;;10.37;89.89;101308.06;5032876;28;20484;-47
2022/11/13 05:45:18;;;;;;;22.42;14.63;;;;;;;10.21;90.63;101312.50;5032710;28;20033;-45
2022/11/13 05:47:43;;;;;;;17.33;9.50;;;;;;;10.18;91.96;101314.50;5032763;28;20177;-46
2022/11/13 05:50:09;;;;;;;19.38;10.02;;;;;;;10.45;90.15;101312.59;5032956;28;20021;-49
2022/11/13 05:52:34;;;;;;;13.77;8.82;;;;;;;10.54;89.28;101308.91;5032625;28;20087;-46
2022/11/13 05:54:59;;;;;;;19.38;11.60;;;;;;;10.43;89.91;101309.22;5031747;28;20033;-46
2022/11/13 05:57:25;;;;;;;17.25;10.45;;;;;;;10.57;89.10;101316.56;5031916;28;20033;-46
2022/11/13 05:59:50;;;;;;;16.70;9.73;;;;;;;10.31;91.68;101313.22;5032265;28;20025;-45
2022/11/13 06:02:16;;;;;;;13.75;8.98;;;;;;;10.45;89.62;101317.06;5030915;28;20037;-45
2022/11/13 06:04:41;;;;;;;16.48;9.30;;;;;;;10.29;90.32;101326.63;5031024;28;20524;-45
2022/11/13 06:07:07;;;;;;;15.18;10.05;;;;;;;10.26;91.52;101326.13;5030377;28;20029;-45
2022/11/13 06:09:32;;;;;;;14.65;9.02;;;;;;;10.27;90.91;101327.81;5030326;28;20033;-44
2022/11/13 06:11:57;;;;;;;15.88;9.57;;;;;;;10.40;90.80;101328.19;5030391;28;20144;-44
2022/11/13 06:14:23;;;;;;;15.13;8.85;;;;;;;10.46;90.40;101330.19;5030042;28;20489;-45
2022/11/13 06:16:48;;;;;;;15.88;8.63;;;;;;;10.45;90.27;101335.69;5045265;28;20017;-46
2022/11/13 06:19:14;;;;;;;13.20;8.88;;;;;;;10.34;91.66;101329.69;5049980;28;20020;-46
2022/11/13 06:21:40;;;;;;;16.17;9.13;;;;;;;10.60;91.14;101330.56;5031776;28;20013;-46
2022/11/13 06:24:06;;;;;;;15.80;9.65;;;;;;;10.76;89.71;101327.91;5030356;28;20024;-44
2022/11/13 06:26:34;;;;;;;15.98;9.63;;;;;;;10.86;89.27;101323.25;5030330;28;20025;-46
2022/11/13 06:29:02;;;;;;;14.85;8.88;;;;;;;11.12;89.58;101322.25;5030885;28;20021;-46
2022/11/13 06:31:31;;;;;;;18.27;9.90;;;;;;;11.20;87.48;101329.38;5030822;28;20033;-45
2022/11/13 06:33:58;;;;;;;14.80;9.65;;;;;;;11.24;88.27;101336.03;5030988;28;20105;-46
2022/11/13 06:36:26;;;;;;;21.58;14.43;;;;;;;11.51;87.55;101337.47;5031035;28;20030;-45
2022/11/13 06:38:52;;;;;;;16.73;11.00;;;;;;;11.72;87.18;101334.25;5031222;28;20473;-45
2022/11/13 06:41:21;;;;;;;23.40;14.63;;;;;;;11.74;86.68;101337.56;5030956;28;20026;-44
2022/11/13 06:43:47;;;;;;;20.10;12.63;;;;;;;11.97;85.59;101335.00;5030452;28;20388;-44
2022/11/13 06:46:19;;;;;;;15.45;9.32;;;;;;;12.26;84.08;101329.03;5039739;28;20079;-44
2022/11/13 06:48:45;;;;;;;14.52;9.02;;;;;;;12.41;83.06;101322.91;5050461;28;20036;-44
2022/11/13 06:51:17;;;;;;;14.52;9.35;;;;;;;12.68;81.57;101330.41;5050539;28;20029;-44
2022/11/13 06:53:43;;;;;;;14.27;9.18;;;;;;;12.94;80.95;101328.38;5050373;28;20032;-45
2022/11/13 06:56:09;;;;;;;14.88;10.07;;;;;;;13.01;80.46;101322.13;5050336;28;20025;-45
2022/11/13 06:58:35;;;;;;;14.00;10.10;;;;;;;13.27;78.99;101319.03;5049958;28;20020;-47
2022/11/13 07:01:15;;;;;;;12.80;8.85;;;;;;;13.30;78.50;101315.19;5049819;28;20523;-47
2022/11/13 07:03:41;;;;;;;12.30;9.05;;;;;;;13.35;76.72;101320.81;5036030;28;20108;-47
2022/11/13 07:06:14;;;;;;;15.70;11.80;;;;;;;13.52;76.36;101316.13;5030597;28;20466;-44
2022/11/13 07:08:41;;;;;;;22.40;13.15;;;;;;;14.02;73.05;101311.81;5030199;28;20026;-47
2022/11/13 07:11:10;;;;;;;17.15;10.13;;;;;;;14.23;72.20;101313.72;5030730;28;20025;-49
2022/11/13 07:13:36;;;;;;;15.98;9.75;;;;;;;14.32;71.87;101309.06;5030212;28;20034;-46
2022/11/13 07:16:03;;;;;;;26.77;15.32;;;;;;;14.31;70.91;101315.44;5030397;28;20028;-37
2022/11/13 07:18:30;;;;;;;13.23;9.15;;;;;;;14.42;70.04;101309.56;5041568;28;20082;-37
2022/11/13 07:20:55;;;;;;;14.80;11.05;;;;;;;14.57;70.14;101304.19;5030064;28;20549;-38
2022/11/13 07:23:21;;;;;;;20.55;14.63;;;;;;;14.56;70.06;101312.38;5029968;28;20132;-39
2022/11/13 07:25:51;;;;;;;10.43;7.72;;;;;;;14.76;69.54;101304.56;5029831;28;20053;-37
2022/11/13 07:28:16;;;;;;;8.85;7.00;;;;;;;15.15;67.44;101296.00;5029438;28;20044;-35
2022/11/13 07:30:41;;;;;;;10.93;7.60;;;;;;;15.17;67.50;101299.34;5030575;28;20025;-37
2022/11/13 07:33:07;;;;;;;15.50;9.95;;;;;;;15.51;65.89;101297.66;5030499;28;20092;-37
2022/11/13 07:35:32;;;;;;;10.38;8.77;;;;;;;15.62;64.24;101291.72;5030074;28;20489;-37
2022/11/13 07:37:57;;;;;;;10.95;8.50;;;;;;;15.66;63.34;101297.53;5030313;28;20036;-37
2022/11/13 07:40:24;;;;;;;13.05;9.52;;;;;;;15.71;63.56;101297.78;5030162;28;20026;-37
2022/11/13 07:43:00;;;;;;;12.70;9.25;;;;;;;15.77;63.65;101304.22;5029322;28;20021;-37
2022/11/13 07:45:26;;;;;;;13.10;9.40;;;;;;;16.74;63.62;101302.19;5030060;28;20111;-38
2022/11/13 07:48:00;;;;;;;15.45;10.90;;;;;;;17.89;59.05;101299.94;5030067;28;20040;-37
2022/11/13 07:50:27;;;;;;;15.43;9.73;;;;;;;18.86;57.46;101307.84;5029909;28;20558;-38
2022/11/13 07:53:01;;;;;;;18.63;12.80;;;;;;;19.23;54.43;101304.38;5030163;28;20026;-38
2022/11/13 07:55:27;;;;;;;19.63;12.98;;;;;;;19.15;53.76;101300.09;5030274;28;20029;-36
2022/11/13 07:57:57;;;;;;;24.92;15.10;;;;;;;19.04;53.20;101298.97;5030333;28;20022;-38
2022/11/13 08:00:26;;;;;;;19.67;13.90;;;;;;;18.88;52.82;101294.94;5030329;28;20049;-37
2022/11/13 08:02:52;;;;;;;17.17;12.20;;;;;;;18.66;52.70;101301.78;5030106;28;20075;-38
2022/11/13 08:05:18;;;;;;;19.27;13.00;;;;;;;18.69;53.75;101302.13;5030174;28;20029;-37
2022/11/13 08:07:51;;;;;;;17.08;11.73;;;;;;;18.23;54.07;101292.50;5029834;28;20100;-37
2022/11/13 08:10:17;;;;;;;15.98;11.55;;;;;;;18.43;53.82;101297.78;5028463;28;20021;-37
2022/11/13 08:12:43;;;;;;;18.05;12.50;;;;;;;18.47;53.41;101298.16;5029915;28;20021;-37
2022/11/13 08:15:10;;;;;;;16.63;12.25;;;;;;;18.28;54.18;101298.06;5030015;28;20026;-38
2022/11/13 08:17:35;;;;;;;15.77;11.75;;;;;;;18.26;54.44;101302.00;5029472;28;20029;-37
2022/11/13 08:20:02;;;;;;;18.13;13.05;;;;;;;18.08;55.06;101305.44;5029350;28;20071;-37
2022/11/13 08:22:29;;;;;;;20.20;14.70;;;;;;;18.01;55.19;101307.34;5029360;28;20493;-37
2022/11/13 08:24:54;;;;;;;18.23;13.43;;;;;;;17.83;55.81;101300.75;5029643;28;20045;-36
2022/11/13 08:27:21;;;;;;;17.50;12.88;;;;;;;17.81;55.11;101305.53;5031316;28;20032;-37
2022/11/13 08:29:47;;;;;;;19.45;14.13;;;;;;;17.64;55.45;101307.06;5033231;28;20159;-37
2022/11/13 08:32:17;;;;;;;22.35;16.38;;;;;;;17.70;55.99;101304.31;5033111;28;20416;-37
2022/11/13 08:34:42;;;;;;;17.65;13.48;;;;;;;18.05;54.98;101293.25;5033070;28;20025;-37
2022/11/13 08:37:08;;;;;;;21.92;15.23;;;;;;;18.17;54.89;101293.38;5032654;28;20033;-37
2022/11/13 08:39:34;;;;;;;17.63;13.10;;;;;;;18.20;55.58;101298.34;5032966;28;20026;-37
2022/11/13 08:42:03;;;;;;;17.10;13.10;;;;;;;18.58;54.32;101299.31;5033793;28;20111;-37
2022/11/13 08:44:29;;;;;;;20.52;15.70;;;;;;;18.93;52.95;101291.59;5032988;28;20036;-37
2022/11/13 08:46:55;;;;;;;35.70;25.77;;;;;;;19.11;51.49;101291.66;5032652;28;20119;-38
2022/11/13 08:49:20;;;;;;;20.75;15.07;;;;;;;19.07;52.38;101295.81;5032765;28;20065;-36
2022/11/13 08:51:46;;;;;;;16.52;13.05;;;;;;;18.68;52.46;101280.81;5032705;28;20064;-38
2022/11/13 08:54:11;;;;;;;16.48;13.30;;;;;;;19.08;52.25;101294.78;5033098;28;20025;-38
2022/11/13 08:56:36;;;;;;;18.25;13.93;;;;;;;19.46;52.51;101299.16;5032750;28;20021;-37
2022/11/13 08:59:02;;;;;;;16.23;12.50;;;;;;;19.47;52.75;101300.81;5032708;28;20033;-37
2022/11/13 09:01:27;;;;;;;16.42;11.95;;;;;;;19.86;51.29;101292.50;5032679;28;20030;-37
2022/11/13 09:03:53;;;;;;;15.85;12.65;;;;;;;18.92;53.13;101292.63;5032725;28;20029;-37
2022/11/13 09:06:18;;;;;;;14.38;11.52;;;;;;;18.28;57.57;101290.00;5032257;28;20029;-38
2022/11/13 09:08:44;;;;;;;84.80;14.52;;;;;;;19.05;58.13;101284.44;5032435;28;20514;-38
2022/11/13 09:11:09;;;;;;;21.33;10.90;;;;;;;19.62;55.74;101291.50;5032411;28;20553;-37
2022/11/13 09:13:35;;;;;;;16.70;10.98;;;;;;;20.29;53.75;101280.66;5032215;28;20508;-37
2022/11/13 09:16:01;;;;;;;15.18;11.57;;;;;;;20.60;50.16;101279.63;5031793;28;20029;-37
2022/11/13 09:18:28;;;;;;;17.33;12.20;;;;;;;20.38;49.55;101270.38;5031711;28;20033;-37
2022/11/13 09:20:55;;;;;;;16.65;12.80;;;;;;;19.92;50.46;101278.91;5032073;28;20112;-36
2022/11/13 09:23:20;;;;;;;18.90;12.27;;;;;;;19.94;49.90;101277.84;5032207;28;20045;-36
2022/11/13 09:25:46;;;;;;;16.95;12.30;;;;;;;19.78;49.97;101273.88;5031358;28;20065;-36
2022/11/13 09:28:11;;;;;;;17.25;13.00;;;;;;;19.43;51.58;101266.41;5031725;28;20064;-37
2022/11/13 09:30:38;;;;;;;16.65;12.85;;;;;;;19.68;50.53;101267.13;5031335;28;20048;-37
2022/11/13 09:33:05;;;;;;;15.65;11.95;;;;;;;19.88;50.02;101260.69;5031500;28;20087;-37
2022/11/13 09:35:34;;;;;;;13.00;10.85;;;;;;;19.97;50.21;101261.19;5031499;28;20500;-36
2022/11/13 09:38:02;;;;;;;14.40;11.18;;;;;;;20.03;49.32;101247.59;5031859;28;20064;-37
2022/11/13 09:40:34;;;;;;;17.20;12.23;;;;;;;19.80;48.79;101245.63;5032271;28;20436;-36
2022/11/13 09:43:03;;;;;;;15.13;11.02;;;;;;;19.93;48.50;101244.59;5031229;28;20032;-38
2022/11/13 09:45:30;;;;;;;18.00;11.35;;;;;;;19.90;48.41;101247.78;5031252;28;20031;-37
2022/11/13 09:48:16;;;;;;;17.20;12.05;;;;;;;19.81;48.30;101239.16;5031354;28;20037;-37
2022/11/13 09:50:42;;;;;;;15.25;12.32;;;;;;;19.08;49.76;101235.44;5011960;28;20406;-37
2022/11/13 09:53:11;;;;;;;16.45;12.00;;;;;;;19.15;49.86;101235.34;5010593;28;20091;-37
2022/11/13 09:55:44;;;;;;;20.25;11.70;;;;;;;19.40;49.27;101226.34;5010930;28;20026;-36
2022/11/13 09:58:15;;;;;;;17.83;12.20;;;;;;;19.25;50.05;101224.88;5011439;28;20037;-37
2022/11/13 10:00:40;;;;;;;15.63;11.32;;;;;;;19.04;50.26;101217.19;5009946;28;20025;-37
2022/11/13 10:03:24;;;;;;;14.20;10.90;;;;;;;18.09;51.98;101220.91;5010988;28;20026;-37
2022/11/13 10:06:11;;;;;;;15.25;11.32;;;;;;;18.17;52.50;101229.53;5011324;28;20547;-36
2022/11/13 10:08:55;;;;;;;15.48;10.50;;;;;;;18.56;51.55;101226.75;5026759;28;20034;-37
2022/11/13 10:11:51;;;;;;;15.63;10.60;;;;;;;18.67;51.20;101217.13;5012529;28;20022;-37
2022/11/13 10:14:30;;;;;;;15.98;10.77;;;;;;;18.89;50.91;101215.69;5029016;28;20064;-36
2022/11/13 10:17:01;;;;;;;13.63;10.75;;;;;;;18.92;50.58;101222.50;5031165;28;20036;-36
2022/11/13 10:19:50;;;;;;;15.75;11.02;;;;;;;18.93;50.02;101213.38;5031403;28;20039;-36
2022/11/13 10:22:23;;;;;;;14.98;11.40;;;;;;;18.98;50.37;101213.53;5021692;28;20194;-36
2022/11/13 10:24:52;;;;;;;13.73;10.60;;;;;;;18.32;53.21;101215.75;5031589;28;20175;-37
2022/11/13 10:27:18;;;;;;;16.23;10.93;;;;;;;18.91;51.48;101205.50;5031617;28;20029;-36
2022/11/13 10:29:44;;;;;;;16.95;11.25;;;;;;;19.13;51.21;101205.91;5031226;28;20094;-38
2022/11/13 10:32:17;;;;;;;26.83;17.35;;;;;;;19.53;50.00;101208.13;5030854;28;20055;-37
2022/11/13 10:34:52;;;;;;;13.70;10.40;;;;;;;18.59;50.27;101207.44;5031043;28;20094;-37
2022/11/13 10:37:47;;;;;;;16.80;11.00;;;;;;;18.15;51.67;101204.69;5030216;28;20524;-37
2022/11/13 10:40:36;;;;;;;17.20;12.23;;;;;;;17.38;54.66;101193.06;5030926;28;20135;-37
2022/11/13 10:43:15;;;;;;;15.82;11.55;;;;;;;17.19;56.22;101195.63;5029534;28;20473;-37
2022/11/13 10:45:51;;;;;;;16.38;12.27;;;;;;;17.53;55.34;101184.72;5030034;28;20527;-37
2022/11/13 10:48:20;;;;;;;16.77;11.93;;;;;;;17.77;54.54;101180.47;5030007;28;20036;-37
2022/11/13 10:50:53;;;;;;;18.90;12.82;;;;;;;17.85;54.29;101177.53;5030320;28;20108;-36
2022/11/13 10:53:19;;;;;;;18.65;12.48;;;;;;;18.22;53.99;101177.72;5030428;28;20078;-37
2022/11/13 10:55:49;;;;;;;15.38;11.88;;;;;;;18.44;52.79;101166.53;5030523;28;20030;-37
2022/11/13 10:58:17;;;;;;;19.33;12.25;;;;;;;18.62;52.00;101161.19;5030605;28;20053;-37
2022/11/13 11:00:46;;;;;;;21.23;12.30;;;;;;;18.32;51.79;101161.88;5030024;28;20022;-36
2022/11/13 11:03:20;;;;;;;16.00;11.65;;;;;;;18.50;51.88;101157.56;5030218;28;20033;-38
2022/11/13 11:05:57;;;;;;;13.38;10.80;;;;;;;18.84;49.75;101150.00;5028468;28;20079;-36
2022/11/13 11:08:31;;;;;;;18.08;11.60;;;;;;;18.87;50.46;101154.97;5027501;28;20029;-37
2022/11/13 11:13:49;;;;;;;12.82;9.50;;;;;;;18.56;49.01;101143.19;5029313;28;20027;-37
2022/11/13 11:16:20;;;;;;;14.02;10.10;;;;;;;18.74;48.67;101143.22;5030181;28;20025;-37
2022/11/13 11:19:09;;;;;;;13.00;10.30;;;;;;;17.77;51.04;101142.78;5030186;28;20037;-36
2022/11/13 11:21:37;;;;;;;13.30;11.02;;;;;;;17.98;51.29;101128.97;5029229;28;20048;-37